sensor_id;sensor_type;location;lat;lon;timestamp;P1;durP1;ratioP1;P2;durP2;ratioP2
6983;SDS011;3532;51.118;7.210;2023-04-25T00:00:13;9.80;;;5.20;;
6983;SDS011;3532;51.118;7.210;2023-04-25T00:02:39;8.57;;;5.00;;
6983;SDS011;3532;51.118;7.210;2023-04-25T00:05:04;10.13;;;4.77;;
6983;SDS011;3532;51.118;7.210;2023-04-25T00:07:30;13.60;;;5.57;;
6983;SDS011;3532;51.118;7.210;2023-04-25T00:09:56;7.60;;;5.60;;
6983;SDS011;3532;51.118;7.210;2023-04-25T00:12:21;11.23;;;5.57;;
6983;SDS011;3532;51.118;7.210;2023-04-25T00:14:47;12.57;;;5.40;;
6983;SDS011;3532;51.118;7.210;2023-04-25T00:17:14;14.10;;;6.83;;
6983;SDS011;3532;51.118;7.210;2023-04-25T00:19:40;10.40;;;5.93;;
6983;SDS011;3532;51.118;7.210;2023-04-25T00:22:05;8.97;;;5.97;;
6983;SDS011;3532;51.118;7.210;2023-04-25T00:24:30;12.40;;;5.67;;
6983;SDS011;3532;51.118;7.210;2023-04-25T00:26:56;8.63;;;5.70;;
6983;SDS011;3532;51.118;7.210;2023-04-25T00:29:21;12.60;;;6.27;;
6983;SDS011;3532;51.118;7.210;2023-04-25T00:31:46;9.30;;;5.20;;
6983;SDS011;3532;51.118;7.210;2023-04-25T00:34:12;13.00;;;5.73;;
6983;SDS011;3532;51.118;7.210;2023-04-25T00:36:37;9.80;;;5.70;;
6983;SDS011;3532;51.118;7.210;2023-04-25T00:39:03;12.77;;;6.53;;
6983;SDS011;3532;51.118;7.210;2023-04-25T00:41:29;9.97;;;6.23;;
6983;SDS011;3532;51.118;7.210;2023-04-25T00:43:55;11.50;;;5.73;;
6983;SDS011;3532;51.118;7.210;2023-04-25T00:46:21;9.47;;;5.73;;
6983;SDS011;3532;51.118;7.210;2023-04-25T00:48:46;10.00;;;6.50;;
6983;SDS011;3532;51.118;7.210;2023-04-25T00:51:14;9.90;;;5.53;;
6983;SDS011;3532;51.118;7.210;2023-04-25T00:53:41;10.10;;;5.83;;
6983;SDS011;3532;51.118;7.210;2023-04-25T00:56:07;11.50;;;5.13;;
6983;SDS011;3532;51.118;7.210;2023-04-25T00:58:32;9.73;;;6.40;;
6983;SDS011;3532;51.118;7.210;2023-04-25T01:00:58;10.57;;;6.40;;
6983;SDS011;3532;51.118;7.210;2023-04-25T01:03:23;8.53;;;6.60;;
6983;SDS011;3532;51.118;7.210;2023-04-25T01:05:49;7.63;;;5.60;;
6983;SDS011;3532;51.118;7.210;2023-04-25T01:08:15;11.13;;;7.23;;
6983;SDS011;3532;51.118;7.210;2023-04-25T01:10:40;9.30;;;6.33;;
6983;SDS011;3532;51.118;7.210;2023-04-25T01:13:06;15.10;;;6.67;;
6983;SDS011;3532;51.118;7.210;2023-04-25T01:15:31;11.50;;;6.60;;
6983;SDS011;3532;51.118;7.210;2023-04-25T01:17:57;12.07;;;7.13;;
6983;SDS011;3532;51.118;7.210;2023-04-25T01:20:23;11.27;;;6.47;;
6983;SDS011;3532;51.118;7.210;2023-04-25T01:22:50;12.50;;;6.90;;
6983;SDS011;3532;51.118;7.210;2023-04-25T01:25:15;17.23;;;6.77;;
6983;SDS011;3532;51.118;7.210;2023-04-25T01:27:41;14.23;;;7.03;;
6983;SDS011;3532;51.118;7.210;2023-04-25T01:30:07;16.17;;;6.47;;
6983;SDS011;3532;51.118;7.210;2023-04-25T01:32:33;13.33;;;6.60;;
6983;SDS011;3532;51.118;7.210;2023-04-25T01:35:04;11.90;;;5.97;;
6983;SDS011;3532;51.118;7.210;2023-04-25T01:37:34;8.10;;;6.53;;
6983;SDS011;3532;51.118;7.210;2023-04-25T01:40:01;10.57;;;5.57;;
6983;SDS011;3532;51.118;7.210;2023-04-25T01:42:27;8.90;;;6.17;;
6983;SDS011;3532;51.118;7.210;2023-04-25T01:44:52;10.60;;;6.27;;
6983;SDS011;3532;51.118;7.210;2023-04-25T01:47:18;10.47;;;5.73;;
6983;SDS011;3532;51.118;7.210;2023-04-25T01:49:43;10.70;;;6.30;;
6983;SDS011;3532;51.118;7.210;2023-04-25T01:52:08;14.07;;;6.47;;
6983;SDS011;3532;51.118;7.210;2023-04-25T01:54:34;14.70;;;7.07;;
6983;SDS011;3532;51.118;7.210;2023-04-25T01:56:59;15.40;;;6.93;;
6983;SDS011;3532;51.118;7.210;2023-04-25T01:59:25;11.50;;;5.93;;
6983;SDS011;3532;51.118;7.210;2023-04-25T02:01:50;9.30;;;6.37;;
6983;SDS011;3532;51.118;7.210;2023-04-25T02:04:16;12.50;;;6.17;;
6983;SDS011;3532;51.118;7.210;2023-04-25T02:06:41;12.53;;;6.33;;
6983;SDS011;3532;51.118;7.210;2023-04-25T02:09:06;9.43;;;6.37;;
6983;SDS011;3532;51.118;7.210;2023-04-25T02:11:32;10.43;;;5.80;;
6983;SDS011;3532;51.118;7.210;2023-04-25T02:13:57;11.10;;;6.00;;
6983;SDS011;3532;51.118;7.210;2023-04-25T02:16:22;15.63;;;7.03;;
6983;SDS011;3532;51.118;7.210;2023-04-25T02:18:48;9.90;;;5.33;;
6983;SDS011;3532;51.118;7.210;2023-04-25T02:21:13;9.60;;;5.30;;
6983;SDS011;3532;51.118;7.210;2023-04-25T02:23:38;11.33;;;6.07;;
6983;SDS011;3532;51.118;7.210;2023-04-25T02:26:04;10.47;;;5.77;;
6983;SDS011;3532;51.118;7.210;2023-04-25T02:28:29;11.40;;;5.50;;
6983;SDS011;3532;51.118;7.210;2023-04-25T02:30:55;11.70;;;5.07;;
6983;SDS011;3532;51.118;7.210;2023-04-25T02:33:20;12.20;;;5.63;;
6983;SDS011;3532;51.118;7.210;2023-04-25T02:35:46;11.53;;;6.53;;
6983;SDS011;3532;51.118;7.210;2023-04-25T02:38:11;10.30;;;6.33;;
6983;SDS011;3532;51.118;7.210;2023-04-25T02:40:36;13.17;;;5.80;;
6983;SDS011;3532;51.118;7.210;2023-04-25T02:43:02;7.60;;;5.60;;
6983;SDS011;3532;51.118;7.210;2023-04-25T02:45:27;14.70;;;6.40;;
6983;SDS011;3532;51.118;7.210;2023-04-25T02:47:52;9.40;;;6.00;;
6983;SDS011;3532;51.118;7.210;2023-04-25T02:50:18;8.83;;;5.43;;
6983;SDS011;3532;51.118;7.210;2023-04-25T02:52:44;10.37;;;6.40;;
6983;SDS011;3532;51.118;7.210;2023-04-25T02:55:10;14.77;;;6.70;;
6983;SDS011;3532;51.118;7.210;2023-04-25T02:57:35;11.60;;;5.67;;
6983;SDS011;3532;51.118;7.210;2023-04-25T03:00:01;9.83;;;6.13;;
6983;SDS011;3532;51.118;7.210;2023-04-25T03:02:26;7.83;;;5.87;;
6983;SDS011;3532;51.118;7.210;2023-04-25T03:04:51;12.27;;;6.13;;
6983;SDS011;3532;51.118;7.210;2023-04-25T03:07:17;10.30;;;5.70;;
6983;SDS011;3532;51.118;7.210;2023-04-25T03:09:42;10.83;;;6.10;;
6983;SDS011;3532;51.118;7.210;2023-04-25T03:12:08;8.90;;;6.27;;
6983;SDS011;3532;51.118;7.210;2023-04-25T03:14:33;12.03;;;6.13;;
6983;SDS011;3532;51.118;7.210;2023-04-25T03:16:58;9.63;;;6.33;;
6983;SDS011;3532;51.118;7.210;2023-04-25T03:19:24;12.17;;;6.03;;
6983;SDS011;3532;51.118;7.210;2023-04-25T03:21:49;11.17;;;6.33;;
6983;SDS011;3532;51.118;7.210;2023-04-25T03:24:14;11.57;;;6.20;;
6983;SDS011;3532;51.118;7.210;2023-04-25T03:26:40;10.40;;;5.40;;
6983;SDS011;3532;51.118;7.210;2023-04-25T03:29:05;10.30;;;6.23;;
6983;SDS011;3532;51.118;7.210;2023-04-25T03:31:30;11.37;;;6.33;;
6983;SDS011;3532;51.118;7.210;2023-04-25T03:33:56;12.40;;;6.50;;
6983;SDS011;3532;51.118;7.210;2023-04-25T03:36:21;10.63;;;6.03;;
6983;SDS011;3532;51.118;7.210;2023-04-25T03:38:46;9.50;;;6.10;;
6983;SDS011;3532;51.118;7.210;2023-04-25T03:41:13;12.53;;;6.57;;
6983;SDS011;3532;51.118;7.210;2023-04-25T03:43:38;14.17;;;5.93;;
6983;SDS011;3532;51.118;7.210;2023-04-25T03:46:04;9.43;;;5.80;;
6983;SDS011;3532;51.118;7.210;2023-04-25T03:48:29;9.07;;;5.53;;
6983;SDS011;3532;51.118;7.210;2023-04-25T03:50:54;7.13;;;5.77;;
6983;SDS011;3532;51.118;7.210;2023-04-25T03:53:20;13.03;;;7.03;;
6983;SDS011;3532;51.118;7.210;2023-04-25T03:55:45;11.70;;;6.10;;
6983;SDS011;3532;51.118;7.210;2023-04-25T03:58:10;13.57;;;6.10;;
6983;SDS011;3532;51.118;7.210;2023-04-25T04:00:36;8.47;;;5.07;;
6983;SDS011;3532;51.118;7.210;2023-04-25T04:03:01;7.13;;;5.70;;
6983;SDS011;3532;51.118;7.210;2023-04-25T04:05:26;14.47;;;6.43;;
6983;SDS011;3532;51.118;7.210;2023-04-25T04:07:52;15.03;;;7.20;;
6983;SDS011;3532;51.118;7.210;2023-04-25T04:10:17;11.67;;;7.40;;
6983;SDS011;3532;51.118;7.210;2023-04-25T04:12:43;13.27;;;7.53;;
6983;SDS011;3532;51.118;7.210;2023-04-25T04:15:09;14.17;;;8.87;;
6983;SDS011;3532;51.118;7.210;2023-04-25T04:17:34;15.67;;;8.53;;
6983;SDS011;3532;51.118;7.210;2023-04-25T04:20:00;14.00;;;9.13;;
6983;SDS011;3532;51.118;7.210;2023-04-25T04:22:25;15.60;;;9.23;;
6983;SDS011;3532;51.118;7.210;2023-04-25T04:24:50;16.57;;;9.87;;
6983;SDS011;3532;51.118;7.210;2023-04-25T04:27:19;14.83;;;10.00;;
6983;SDS011;3532;51.118;7.210;2023-04-25T04:29:44;13.37;;;9.50;;
6983;SDS011;3532;51.118;7.210;2023-04-25T04:32:10;18.10;;;9.97;;
6983;SDS011;3532;51.118;7.210;2023-04-25T04:34:36;19.17;;;10.03;;
6983;SDS011;3532;51.118;7.210;2023-04-25T04:37:02;12.93;;;9.20;;
6983;SDS011;3532;51.118;7.210;2023-04-25T04:39:27;18.23;;;9.43;;
6983;SDS011;3532;51.118;7.210;2023-04-25T04:41:53;14.77;;;11.10;;
6983;SDS011;3532;51.118;7.210;2023-04-25T04:44:18;17.23;;;11.20;;
6983;SDS011;3532;51.118;7.210;2023-04-25T04:46:43;19.67;;;11.23;;
6983;SDS011;3532;51.118;7.210;2023-04-25T04:49:09;16.07;;;11.87;;
6983;SDS011;3532;51.118;7.210;2023-04-25T04:51:35;18.63;;;11.50;;
6983;SDS011;3532;51.118;7.210;2023-04-25T04:54:01;20.33;;;11.67;;
6983;SDS011;3532;51.118;7.210;2023-04-25T04:56:28;17.70;;;10.53;;
6983;SDS011;3532;51.118;7.210;2023-04-25T04:58:56;20.43;;;10.90;;
6983;SDS011;3532;51.118;7.210;2023-04-25T05:01:25;15.10;;;10.27;;
6983;SDS011;3532;51.118;7.210;2023-04-25T05:03:51;21.03;;;11.50;;
6983;SDS011;3532;51.118;7.210;2023-04-25T05:06:17;16.23;;;9.93;;
6983;SDS011;3532;51.118;7.210;2023-04-25T05:08:43;23.03;;;10.93;;
6983;SDS011;3532;51.118;7.210;2023-04-25T05:11:08;19.80;;;10.47;;
6983;SDS011;3532;51.118;7.210;2023-04-25T05:13:34;17.30;;;10.73;;
6983;SDS011;3532;51.118;7.210;2023-04-25T05:15:59;22.23;;;11.37;;
6983;SDS011;3532;51.118;7.210;2023-04-25T05:18:25;22.47;;;10.63;;
6983;SDS011;3532;51.118;7.210;2023-04-25T05:20:50;23.90;;;11.47;;
6983;SDS011;3532;51.118;7.210;2023-04-25T05:23:15;22.40;;;11.43;;
6983;SDS011;3532;51.118;7.210;2023-04-25T05:25:41;19.43;;;11.30;;
6983;SDS011;3532;51.118;7.210;2023-04-25T05:28:06;19.10;;;12.20;;
6983;SDS011;3532;51.118;7.210;2023-04-25T05:30:32;16.60;;;10.43;;
6983;SDS011;3532;51.118;7.210;2023-04-25T05:32:57;21.03;;;10.43;;
6983;SDS011;3532;51.118;7.210;2023-04-25T05:35:22;19.70;;;10.03;;
6983;SDS011;3532;51.118;7.210;2023-04-25T05:37:47;13.47;;;9.37;;
6983;SDS011;3532;51.118;7.210;2023-04-25T05:40:13;21.87;;;10.83;;
6983;SDS011;3532;51.118;7.210;2023-04-25T05:42:38;19.23;;;9.70;;
6983;SDS011;3532;51.118;7.210;2023-04-25T05:45:04;24.13;;;11.43;;
6983;SDS011;3532;51.118;7.210;2023-04-25T05:47:29;16.53;;;10.63;;
6983;SDS011;3532;51.118;7.210;2023-04-25T05:49:55;20.13;;;10.87;;
6983;SDS011;3532;51.118;7.210;2023-04-25T05:52:20;18.67;;;10.60;;
6983;SDS011;3532;51.118;7.210;2023-04-25T05:54:45;23.40;;;11.87;;
6983;SDS011;3532;51.118;7.210;2023-04-25T05:57:23;23.27;;;10.63;;
6983;SDS011;3532;51.118;7.210;2023-04-25T05:59:49;17.57;;;9.70;;
6983;SDS011;3532;51.118;7.210;2023-04-25T06:02:15;21.43;;;11.67;;
6983;SDS011;3532;51.118;7.210;2023-04-25T06:04:41;21.83;;;9.70;;
6983;SDS011;3532;51.118;7.210;2023-04-25T06:07:06;26.60;;;11.30;;
6983;SDS011;3532;51.118;7.210;2023-04-25T06:09:31;17.40;;;10.80;;
6983;SDS011;3532;51.118;7.210;2023-04-25T06:11:56;19.13;;;10.37;;
6983;SDS011;3532;51.118;7.210;2023-04-25T06:14:22;16.93;;;11.17;;
6983;SDS011;3532;51.118;7.210;2023-04-25T06:16:47;20.43;;;10.60;;
6983;SDS011;3532;51.118;7.210;2023-04-25T06:19:12;18.77;;;9.63;;
6983;SDS011;3532;51.118;7.210;2023-04-25T06:21:38;19.13;;;9.10;;
6983;SDS011;3532;51.118;7.210;2023-04-25T06:24:03;13.60;;;8.97;;
6983;SDS011;3532;51.118;7.210;2023-04-25T06:26:29;15.57;;;8.67;;
6983;SDS011;3532;51.118;7.210;2023-04-25T06:28:54;18.20;;;9.03;;
6983;SDS011;3532;51.118;7.210;2023-04-25T06:31:19;14.30;;;7.40;;
6983;SDS011;3532;51.118;7.210;2023-04-25T06:33:44;15.87;;;7.90;;
6983;SDS011;3532;51.118;7.210;2023-04-25T06:36:10;15.93;;;8.47;;
6983;SDS011;3532;51.118;7.210;2023-04-25T06:38:35;18.53;;;8.23;;
6983;SDS011;3532;51.118;7.210;2023-04-25T06:41:01;8.93;;;7.37;;
6983;SDS011;3532;51.118;7.210;2023-04-25T06:43:26;20.40;;;7.67;;
6983;SDS011;3532;51.118;7.210;2023-04-25T06:45:51;18.63;;;7.87;;
6983;SDS011;3532;51.118;7.210;2023-04-25T06:48:16;15.63;;;7.67;;
6983;SDS011;3532;51.118;7.210;2023-04-25T06:50:42;21.77;;;8.03;;
6983;SDS011;3532;51.118;7.210;2023-04-25T06:53:07;17.07;;;7.77;;
6983;SDS011;3532;51.118;7.210;2023-04-25T06:55:33;15.03;;;6.03;;
6983;SDS011;3532;51.118;7.210;2023-04-25T06:57:59;12.00;;;6.53;;
6983;SDS011;3532;51.118;7.210;2023-04-25T07:00:26;15.83;;;6.13;;
6983;SDS011;3532;51.118;7.210;2023-04-25T07:02:51;14.40;;;6.57;;
6983;SDS011;3532;51.118;7.210;2023-04-25T07:05:16;17.10;;;6.77;;
6983;SDS011;3532;51.118;7.210;2023-04-25T07:07:42;12.63;;;6.73;;
6983;SDS011;3532;51.118;7.210;2023-04-25T07:10:07;13.20;;;6.80;;
6983;SDS011;3532;51.118;7.210;2023-04-25T07:12:32;13.97;;;6.20;;
6983;SDS011;3532;51.118;7.210;2023-04-25T07:14:58;11.23;;;6.30;;
6983;SDS011;3532;51.118;7.210;2023-04-25T07:17:23;14.67;;;5.57;;
6983;SDS011;3532;51.118;7.210;2023-04-25T07:19:48;11.13;;;5.63;;
6983;SDS011;3532;51.118;7.210;2023-04-25T07:22:14;12.43;;;5.63;;
6983;SDS011;3532;51.118;7.210;2023-04-25T07:24:40;10.80;;;5.47;;
6983;SDS011;3532;51.118;7.210;2023-04-25T07:27:05;16.47;;;6.17;;
6983;SDS011;3532;51.118;7.210;2023-04-25T07:29:31;10.13;;;4.90;;
6983;SDS011;3532;51.118;7.210;2023-04-25T07:31:56;8.23;;;5.40;;
6983;SDS011;3532;51.118;7.210;2023-04-25T07:34:22;9.63;;;4.83;;
6983;SDS011;3532;51.118;7.210;2023-04-25T07:36:47;10.27;;;4.30;;
6983;SDS011;3532;51.118;7.210;2023-04-25T07:39:12;11.33;;;4.60;;
6983;SDS011;3532;51.118;7.210;2023-04-25T07:41:38;10.87;;;4.83;;
6983;SDS011;3532;51.118;7.210;2023-04-25T07:44:03;13.53;;;5.27;;
6983;SDS011;3532;51.118;7.210;2023-04-25T07:46:28;9.00;;;4.47;;
6983;SDS011;3532;51.118;7.210;2023-04-25T07:48:53;9.77;;;4.57;;
6983;SDS011;3532;51.118;7.210;2023-04-25T07:51:19;11.10;;;4.53;;
6983;SDS011;3532;51.118;7.210;2023-04-25T07:53:45;10.80;;;4.80;;
6983;SDS011;3532;51.118;7.210;2023-04-25T07:56:10;8.17;;;4.17;;
6983;SDS011;3532;51.118;7.210;2023-04-25T07:58:36;12.90;;;5.30;;
6983;SDS011;3532;51.118;7.210;2023-04-25T08:01:01;9.10;;;5.13;;
6983;SDS011;3532;51.118;7.210;2023-04-25T08:03:27;8.73;;;4.90;;
6983;SDS011;3532;51.118;7.210;2023-04-25T08:05:52;7.90;;;3.83;;
6983;SDS011;3532;51.118;7.210;2023-04-25T08:08:17;10.47;;;4.57;;
6983;SDS011;3532;51.118;7.210;2023-04-25T08:10:43;10.43;;;4.27;;
6983;SDS011;3532;51.118;7.210;2023-04-25T08:13:08;9.30;;;4.97;;
6983;SDS011;3532;51.118;7.210;2023-04-25T08:15:33;10.03;;;4.93;;
6983;SDS011;3532;51.118;7.210;2023-04-25T08:17:59;8.77;;;5.20;;
6983;SDS011;3532;51.118;7.210;2023-04-25T08:20:24;11.30;;;5.13;;
6983;SDS011;3532;51.118;7.210;2023-04-25T08:22:50;13.93;;;6.27;;
6983;SDS011;3532;51.118;7.210;2023-04-25T08:25:15;8.83;;;5.50;;
6983;SDS011;3532;51.118;7.210;2023-04-25T08:27:41;11.60;;;6.40;;
6983;SDS011;3532;51.118;7.210;2023-04-25T08:30:06;17.10;;;6.40;;
6983;SDS011;3532;51.118;7.210;2023-04-25T08:32:33;11.43;;;6.03;;
6983;SDS011;3532;51.118;7.210;2023-04-25T08:34:59;7.07;;;5.60;;
6983;SDS011;3532;51.118;7.210;2023-04-25T08:37:24;10.70;;;5.17;;
6983;SDS011;3532;51.118;7.210;2023-04-25T08:39:49;9.53;;;5.63;;
6983;SDS011;3532;51.118;7.210;2023-04-25T08:42:17;9.03;;;4.83;;
6983;SDS011;3532;51.118;7.210;2023-04-25T08:44:42;12.07;;;4.57;;
6983;SDS011;3532;51.118;7.210;2023-04-25T08:47:10;11.47;;;5.63;;
6983;SDS011;3532;51.118;7.210;2023-04-25T08:49:35;7.23;;;4.17;;
6983;SDS011;3532;51.118;7.210;2023-04-25T08:52:01;9.70;;;4.17;;
6983;SDS011;3532;51.118;7.210;2023-04-25T08:54:30;7.47;;;3.73;;
6983;SDS011;3532;51.118;7.210;2023-04-25T08:56:56;10.43;;;4.83;;
6983;SDS011;3532;51.118;7.210;2023-04-25T08:59:23;5.90;;;3.47;;
6983;SDS011;3532;51.118;7.210;2023-04-25T09:01:49;6.77;;;3.60;;
6983;SDS011;3532;51.118;7.210;2023-04-25T09:04:15;3.80;;;3.00;;
6983;SDS011;3532;51.118;7.210;2023-04-25T09:06:40;5.23;;;3.80;;
6983;SDS011;3532;51.118;7.210;2023-04-25T09:09:07;9.10;;;3.83;;
6983;SDS011;3532;51.118;7.210;2023-04-25T09:11:33;8.87;;;3.90;;
6983;SDS011;3532;51.118;7.210;2023-04-25T09:14:10;6.60;;;3.83;;
6983;SDS011;3532;51.118;7.210;2023-04-25T09:22:01;9.00;;;3.93;;
6983;SDS011;3532;51.118;7.210;2023-04-25T09:27:09;14.27;;;4.27;;
6983;SDS011;3532;51.118;7.210;2023-04-25T09:29:37;9.23;;;3.50;;
6983;SDS011;3532;51.118;7.210;2023-04-25T09:32:18;6.30;;;4.13;;
6983;SDS011;3532;51.118;7.210;2023-04-25T09:34:48;8.60;;;3.37;;
6983;SDS011;3532;51.118;7.210;2023-04-25T09:37:19;6.53;;;3.90;;
6983;SDS011;3532;51.118;7.210;2023-04-25T09:39:46;9.37;;;3.57;;
6983;SDS011;3532;51.118;7.210;2023-04-25T09:42:13;11.67;;;3.97;;
6983;SDS011;3532;51.118;7.210;2023-04-25T09:44:43;5.77;;;3.43;;
6983;SDS011;3532;51.118;7.210;2023-04-25T09:47:10;5.03;;;3.37;;
6983;SDS011;3532;51.118;7.210;2023-04-25T09:49:38;7.83;;;3.63;;
6983;SDS011;3532;51.118;7.210;2023-04-25T09:52:05;8.80;;;3.57;;
6983;SDS011;3532;51.118;7.210;2023-04-25T09:54:31;6.80;;;3.43;;
6983;SDS011;3532;51.118;7.210;2023-04-25T09:56:56;6.47;;;3.27;;
6983;SDS011;3532;51.118;7.210;2023-04-25T09:59:22;8.17;;;3.30;;
6983;SDS011;3532;51.118;7.210;2023-04-25T10:01:48;6.60;;;3.40;;
6983;SDS011;3532;51.118;7.210;2023-04-25T10:04:15;6.57;;;3.23;;
6983;SDS011;3532;51.118;7.210;2023-04-25T10:06:44;5.67;;;3.50;;
6983;SDS011;3532;51.118;7.210;2023-04-25T10:09:11;5.90;;;3.30;;
6983;SDS011;3532;51.118;7.210;2023-04-25T10:11:37;7.17;;;3.30;;
6983;SDS011;3532;51.118;7.210;2023-04-25T10:14:03;5.13;;;2.87;;
6983;SDS011;3532;51.118;7.210;2023-04-25T10:16:29;4.80;;;3.07;;
6983;SDS011;3532;51.118;7.210;2023-04-25T10:18:55;6.77;;;3.07;;
6983;SDS011;3532;51.118;7.210;2023-04-25T10:21:20;6.10;;;3.17;;
6983;SDS011;3532;51.118;7.210;2023-04-25T10:23:46;7.63;;;3.53;;
6983;SDS011;3532;51.118;7.210;2023-04-25T10:26:12;7.83;;;2.83;;
6983;SDS011;3532;51.118;7.210;2023-04-25T10:31:22;4.80;;;3.60;;
6983;SDS011;3532;51.118;7.210;2023-04-25T10:33:48;5.80;;;3.20;;
6983;SDS011;3532;51.118;7.210;2023-04-25T10:38:39;8.40;;;4.03;;
6983;SDS011;3532;51.118;7.210;2023-04-25T10:41:09;10.43;;;4.17;;
6983;SDS011;3532;51.118;7.210;2023-04-25T10:43:41;6.53;;;3.53;;
6983;SDS011;3532;51.118;7.210;2023-04-25T10:46:18;6.73;;;3.73;;
6983;SDS011;3532;51.118;7.210;2023-04-25T10:48:54;4.10;;;2.60;;
6983;SDS011;3532;51.118;7.210;2023-04-25T10:51:27;5.10;;;2.20;;
6983;SDS011;3532;51.118;7.210;2023-04-25T10:54:06;4.03;;;2.87;;
6983;SDS011;3532;51.118;7.210;2023-04-25T11:01:37;7.47;;;2.87;;
6983;SDS011;3532;51.118;7.210;2023-04-25T11:04:06;5.30;;;3.33;;
6983;SDS011;3532;51.118;7.210;2023-04-25T11:09:36;9.67;;;3.40;;
6983;SDS011;3532;51.118;7.210;2023-04-25T11:12:04;6.90;;;2.33;;
6983;SDS011;3532;51.118;7.210;2023-04-25T11:14:30;4.13;;;2.83;;
6983;SDS011;3532;51.118;7.210;2023-04-25T11:16:56;4.87;;;2.20;;
6983;SDS011;3532;51.118;7.210;2023-04-25T11:19:22;5.63;;;2.97;;
6983;SDS011;3532;51.118;7.210;2023-04-25T11:21:48;3.93;;;2.63;;
6983;SDS011;3532;51.118;7.210;2023-04-25T11:24:13;7.67;;;2.90;;
6983;SDS011;3532;51.118;7.210;2023-04-25T11:26:41;5.47;;;2.67;;
6983;SDS011;3532;51.118;7.210;2023-04-25T11:29:07;5.00;;;2.67;;
6983;SDS011;3532;51.118;7.210;2023-04-25T11:31:33;9.10;;;2.77;;
6983;SDS011;3532;51.118;7.210;2023-04-25T11:33:58;5.80;;;2.20;;
6983;SDS011;3532;51.118;7.210;2023-04-25T11:36:24;4.40;;;1.90;;
6983;SDS011;3532;51.118;7.210;2023-04-25T11:38:51;3.20;;;2.43;;
6983;SDS011;3532;51.118;7.210;2023-04-25T11:41:17;4.00;;;2.10;;
6983;SDS011;3532;51.118;7.210;2023-04-25T11:43:42;4.87;;;2.87;;
6983;SDS011;3532;51.118;7.210;2023-04-25T11:46:08;7.23;;;2.60;;
6983;SDS011;3532;51.118;7.210;2023-04-25T11:48:40;4.27;;;2.20;;
6983;SDS011;3532;51.118;7.210;2023-04-25T11:51:06;5.33;;;2.57;;
6983;SDS011;3532;51.118;7.210;2023-04-25T11:53:32;3.47;;;2.23;;
6983;SDS011;3532;51.118;7.210;2023-04-25T11:55:57;2.97;;;2.07;;
6983;SDS011;3532;51.118;7.210;2023-04-25T11:58:23;5.17;;;2.57;;
6983;SDS011;3532;51.118;7.210;2023-04-25T12:00:48;4.23;;;2.63;;
6983;SDS011;3532;51.118;7.210;2023-04-25T12:03:13;7.70;;;2.53;;
6983;SDS011;3532;51.118;7.210;2023-04-25T12:05:39;6.60;;;2.60;;
6983;SDS011;3532;51.118;7.210;2023-04-25T12:08:14;7.77;;;2.30;;
6983;SDS011;3532;51.118;7.210;2023-04-25T12:10:41;4.83;;;2.17;;
6983;SDS011;3532;51.118;7.210;2023-04-25T12:13:17;5.47;;;2.53;;
6983;SDS011;3532;51.118;7.210;2023-04-25T12:15:44;6.47;;;2.43;;
6983;SDS011;3532;51.118;7.210;2023-04-25T12:18:09;5.13;;;2.20;;
6983;SDS011;3532;51.118;7.210;2023-04-25T12:20:35;4.73;;;2.40;;
6983;SDS011;3532;51.118;7.210;2023-04-25T12:23:00;3.23;;;2.10;;
6983;SDS011;3532;51.118;7.210;2023-04-25T12:25:34;2.90;;;2.27;;
6983;SDS011;3532;51.118;7.210;2023-04-25T12:28:20;6.13;;;2.83;;
6983;SDS011;3532;51.118;7.210;2023-04-25T12:31:06;4.83;;;2.70;;
6983;SDS011;3532;51.118;7.210;2023-04-25T12:33:33;6.60;;;2.63;;
6983;SDS011;3532;51.118;7.210;2023-04-25T12:35:59;5.53;;;3.30;;
6983;SDS011;3532;51.118;7.210;2023-04-25T12:38:29;4.40;;;2.70;;
6983;SDS011;3532;51.118;7.210;2023-04-25T12:40:56;8.17;;;2.67;;
6983;SDS011;3532;51.118;7.210;2023-04-25T12:43:24;5.63;;;2.80;;
6983;SDS011;3532;51.118;7.210;2023-04-25T12:45:50;3.60;;;2.93;;
6983;SDS011;3532;51.118;7.210;2023-04-25T12:48:17;5.73;;;2.60;;
6983;SDS011;3532;51.118;7.210;2023-04-25T12:50:43;6.23;;;2.90;;
6983;SDS011;3532;51.118;7.210;2023-04-25T12:53:09;6.60;;;2.90;;
6983;SDS011;3532;51.118;7.210;2023-04-25T12:55:34;5.37;;;3.20;;
6983;SDS011;3532;51.118;7.210;2023-04-25T12:58:00;6.67;;;3.10;;
6983;SDS011;3532;51.118;7.210;2023-04-25T13:00:25;4.87;;;2.90;;
6983;SDS011;3532;51.118;7.210;2023-04-25T13:02:51;7.07;;;3.13;;
6983;SDS011;3532;51.118;7.210;2023-04-25T13:05:16;4.73;;;2.77;;
6983;SDS011;3532;51.118;7.210;2023-04-25T13:07:42;6.27;;;3.43;;
6983;SDS011;3532;51.118;7.210;2023-04-25T13:10:07;8.47;;;2.80;;
6983;SDS011;3532;51.118;7.210;2023-04-25T13:12:33;4.43;;;2.87;;
6983;SDS011;3532;51.118;7.210;2023-04-25T13:14:58;4.97;;;2.67;;
6983;SDS011;3532;51.118;7.210;2023-04-25T13:17:23;6.57;;;3.00;;
6983;SDS011;3532;51.118;7.210;2023-04-25T13:19:49;5.83;;;3.33;;
6983;SDS011;3532;51.118;7.210;2023-04-25T13:22:14;6.03;;;3.10;;
6983;SDS011;3532;51.118;7.210;2023-04-25T13:24:41;4.07;;;2.80;;
6983;SDS011;3532;51.118;7.210;2023-04-25T13:27:07;6.07;;;3.17;;
6983;SDS011;3532;51.118;7.210;2023-04-25T13:29:32;6.83;;;3.30;;
6983;SDS011;3532;51.118;7.210;2023-04-25T13:32:00;11.67;;;3.57;;
6983;SDS011;3532;51.118;7.210;2023-04-25T13:34:26;6.90;;;3.97;;
6983;SDS011;3532;51.118;7.210;2023-04-25T13:36:51;5.47;;;3.30;;
6983;SDS011;3532;51.118;7.210;2023-04-25T13:39:16;5.07;;;2.90;;
6983;SDS011;3532;51.118;7.210;2023-04-25T13:41:41;4.73;;;3.27;;
6983;SDS011;3532;51.118;7.210;2023-04-25T13:44:07;4.10;;;3.13;;
6983;SDS011;3532;51.118;7.210;2023-04-25T13:46:32;6.17;;;2.93;;
6983;SDS011;3532;51.118;7.210;2023-04-25T13:48:57;4.37;;;2.83;;
6983;SDS011;3532;51.118;7.210;2023-04-25T13:51:23;3.83;;;2.73;;
6983;SDS011;3532;51.118;7.210;2023-04-25T13:53:48;3.63;;;2.27;;
6983;SDS011;3532;51.118;7.210;2023-04-25T13:56:13;4.10;;;2.50;;
6983;SDS011;3532;51.118;7.210;2023-04-25T13:58:39;2.73;;;1.87;;
6983;SDS011;3532;51.118;7.210;2023-04-25T14:01:05;3.70;;;2.53;;
6983;SDS011;3532;51.118;7.210;2023-04-25T14:03:30;3.70;;;2.50;;
6983;SDS011;3532;51.118;7.210;2023-04-25T14:05:56;6.00;;;2.50;;
6983;SDS011;3532;51.118;7.210;2023-04-25T14:08:21;3.80;;;2.20;;
6983;SDS011;3532;51.118;7.210;2023-04-25T14:10:46;2.80;;;2.20;;
6983;SDS011;3532;51.118;7.210;2023-04-25T14:13:12;3.60;;;2.33;;
6983;SDS011;3532;51.118;7.210;2023-04-25T14:15:37;4.87;;;2.50;;
6983;SDS011;3532;51.118;7.210;2023-04-25T14:18:02;6.57;;;3.07;;
6983;SDS011;3532;51.118;7.210;2023-04-25T14:20:28;3.23;;;2.80;;
6983;SDS011;3532;51.118;7.210;2023-04-25T14:22:53;7.00;;;2.80;;
6983;SDS011;3532;51.118;7.210;2023-04-25T14:25:20;5.83;;;2.40;;
6983;SDS011;3532;51.118;7.210;2023-04-25T14:27:46;2.63;;;2.17;;
6983;SDS011;3532;51.118;7.210;2023-04-25T14:30:14;5.87;;;3.07;;
6983;SDS011;3532;51.118;7.210;2023-04-25T14:32:40;4.43;;;2.43;;
6983;SDS011;3532;51.118;7.210;2023-04-25T14:35:06;9.00;;;3.23;;
6983;SDS011;3532;51.118;7.210;2023-04-25T14:37:32;4.33;;;2.90;;
6983;SDS011;3532;51.118;7.210;2023-04-25T14:39:57;4.53;;;3.17;;
6983;SDS011;3532;51.118;7.210;2023-04-25T14:42:22;3.67;;;2.53;;
6983;SDS011;3532;51.118;7.210;2023-04-25T14:44:48;3.23;;;2.70;;
6983;SDS011;3532;51.118;7.210;2023-04-25T14:47:13;3.90;;;2.93;;
6983;SDS011;3532;51.118;7.210;2023-04-25T14:49:38;3.67;;;2.60;;
6983;SDS011;3532;51.118;7.210;2023-04-25T14:52:04;4.43;;;2.40;;
6983;SDS011;3532;51.118;7.210;2023-04-25T14:54:29;4.97;;;2.80;;
6983;SDS011;3532;51.118;7.210;2023-04-25T14:56:54;3.57;;;2.70;;
6983;SDS011;3532;51.118;7.210;2023-04-25T14:59:19;5.87;;;2.90;;
6983;SDS011;3532;51.118;7.210;2023-04-25T15:01:45;3.53;;;2.40;;
6983;SDS011;3532;51.118;7.210;2023-04-25T15:04:10;4.90;;;2.70;;
6983;SDS011;3532;51.118;7.210;2023-04-25T15:06:37;3.80;;;2.20;;
6983;SDS011;3532;51.118;7.210;2023-04-25T15:09:03;4.70;;;2.70;;
6983;SDS011;3532;51.118;7.210;2023-04-25T15:11:28;3.17;;;2.50;;
6983;SDS011;3532;51.118;7.210;2023-04-25T15:13:53;6.97;;;2.37;;
6983;SDS011;3532;51.118;7.210;2023-04-25T15:16:19;6.90;;;3.10;;
6983;SDS011;3532;51.118;7.210;2023-04-25T15:18:45;4.83;;;2.47;;
6983;SDS011;3532;51.118;7.210;2023-04-25T15:21:10;4.47;;;2.30;;